PST,Max TemperatureF,Mean TemperatureF,Min TemperatureF,Max Dew PointF,MeanDew PointF,Min DewpointF,Max Humidity, Mean Humidity, Min Humidity, Max Sea Level PressureIn, Mean Sea Level PressureIn, Min Sea Level PressureIn, Max VisibilityMiles, Mean VisibilityMiles, Min VisibilityMiles, Max Wind SpeedMPH, Mean Wind SpeedMPH, Max Gust SpeedMPH,PrecipitationIn, CloudCover, Events, WindDirDegrees
2014-2-1,52,40,27,32,28,24,92,68,44,30.22,30.12,29.99,10,10,5,9,3,12,0.00,2,,75
2014-2-2,56,42,27,31,27,23,85,56,27,29.98,29.94,29.88,10,10,7,8,2,10,0.00,2,,239
2014-2-3,47,40,32,33,27,23,82,60,38,30.13,30.07,29.98,10,10,10,9,2,12,T,6,Rain,301
2014-2-4,47,39,30,30,26,23,82,60,38,30.21,30.16,30.13,10,10,10,10,3,13,0.00,7,,353
2014-2-5,46,38,29,29,26,24,85,64,42,30.22,30.12,29.98,10,10,10,7,2,9,0.00,6,,19
2014-2-6,47,41,35,40,34,28,92,76,60,29.96,29.83,29.73,10,8,0,12,3,14,0.17,8,Fog-Rain,7
2014-2-7,42,39,36,39,37,34,92,87,82,29.87,29.76,29.61,10,8,4,8,2,10,0.18,7,Rain,2
2014-2-8,62,51,39,48,40,33,100,73,46,29.99,29.85,29.77,10,7,3,17,4,20,0.19,5,Rain,144
2014-2-9,56,47,37,46,40,34,93,74,55,30.08,30.02,29.96,10,10,1,8,2,9,T,4,Rain,299
2014-2-10,58,50,41,45,42,40,100,79,57,30.28,30.19,30.08,10,6,0,7,3,9,T,7,Fog-Rain,38
2014-2-11,55,48,40,44,42,37,93,76,59,30.26,30.17,30.02,10,10,9,8,2,10,T,5,Rain,349
2014-2-12,50,48,46,48,46,44,100,90,80,30.08,30.04,29.98,10,4,1,10,2,12,1.10,8,Rain,356
2014-2-13,53,50,47,50,48,46,100,95,89,30.17,30.08,29.96,6,2,0,10,2,13,0.34,8,Fog-Rain,63
2014-2-14,52,49,46,49,46,44,100,92,83,30.06,29.97,29.89,10,4,0,8,2,9,1.63,8,Fog-Rain,62
2014-2-15,61,52,43,48,43,35,100,76,51,29.95,29.78,29.61,10,6,0,26,5,33,0.47,8,Fog-Rain,308
2014-2-16,56,47,37,37,34,29,85,60,35,30.18,30.11,29.97,10,10,10,18,5,23,T,5,Rain,291
2014-2-17,53,43,33,43,37,31,96,81,66,30.15,30.09,30.03,10,10,8,12,3,17,0.01,6,Rain,29
2014-2-18,59,50,40,43,40,38,93,70,47,30.15,30.06,29.91,10,9,5,22,4,29,0.41,6,Rain,297
2014-2-19,50,41,32,36,33,30,100,76,52,30.36,30.25,30.11,10,6,0,16,4,18,0.02,5,Fog-Rain,342
2014-2-20,53,43,32,39,34,30,96,73,50,30.38,30.32,30.26,10,10,9,9,1,14,0.00,7,,5
2014-2-21,58,47,35,39,36,32,92,68,43,30.30,30.23,30.15,10,10,10,8,2,10,0.00,3,,6
2014-2-22,59,44,29,38,32,27,100,69,37,30.21,30.14,30.02,10,6,0,9,1,11,0.00,4,Fog,168
2014-2-23,61,45,29,42,34,27,92,66,39,30.09,30.04,29.97,10,10,6,7,1,9,0.00,4,,56
2014-2-24,67,56,45,45,43,40,80,61,42,30.05,30.00,29.91,10,10,10,8,2,10,0.00,2,,189
2014-2-25,72,55,37,46,40,35,92,61,29,29.99,29.90,29.80,10,9,0,7,2,16,0.00,0,Fog,292
2014-2-26,68,57,45,43,40,39,82,60,37,29.84,29.73,29.57,10,10,10,29,10,35,0.01,5,,123
2014-2-27,61,52,42,47,42,39,93,70,46,29.72,29.66,29.57,10,10,7,22,5,27,0.02,5,Rain,88
2014-2-28,58,49,39,44,40,38,100,78,55,29.63,29.50,29.35,10,6,0,8,2,11,T,6,Fog-Rain,342